sensor_id;sensor_type;location;lat;lon;timestamp;temperature;humidity
63317;DHT22;49822;41.468;13.560;2023-07-24T00:00:07;26.20;88.90
63317;DHT22;49822;41.468;13.560;2023-07-24T00:02:34;26.10;88.40
63317;DHT22;49822;41.468;13.560;2023-07-24T00:05:00;26.20;87.90
63317;DHT22;49822;41.468;13.560;2023-07-24T00:07:26;26.20;87.90
63317;DHT22;49822;41.468;13.560;2023-07-24T00:09:52;26.10;87.60
63317;DHT22;49822;41.468;13.560;2023-07-24T00:12:18;26.20;87.80
63317;DHT22;49822;41.468;13.560;2023-07-24T00:14:44;26.10;87.70
63317;DHT22;49822;41.468;13.560;2023-07-24T00:17:10;26.00;87.90
63317;DHT22;49822;41.468;13.560;2023-07-24T00:19:37;26.20;87.80
63317;DHT22;49822;41.468;13.560;2023-07-24T00:22:03;26.10;88.00
63317;DHT22;49822;41.468;13.560;2023-07-24T00:24:31;26.10;88.00
63317;DHT22;49822;41.468;13.560;2023-07-24T00:26:57;26.00;89.20
63317;DHT22;49822;41.468;13.560;2023-07-24T00:29:23;25.70;90.00
63317;DHT22;49822;41.468;13.560;2023-07-24T00:31:49;25.70;90.60
63317;DHT22;49822;41.468;13.560;2023-07-24T00:34:15;25.60;90.80
63317;DHT22;49822;41.468;13.560;2023-07-24T00:36:42;25.60;90.80
63317;DHT22;49822;41.468;13.560;2023-07-24T00:39:08;25.70;91.30
63317;DHT22;49822;41.468;13.560;2023-07-24T00:41:34;25.70;90.90
63317;DHT22;49822;41.468;13.560;2023-07-24T00:44:00;25.80;90.60
63317;DHT22;49822;41.468;13.560;2023-07-24T00:46:28;25.80;90.10
63317;DHT22;49822;41.468;13.560;2023-07-24T00:48:58;26.00;90.40
63317;DHT22;49822;41.468;13.560;2023-07-24T00:51:27;25.90;89.70
63317;DHT22;49822;41.468;13.560;2023-07-24T00:53:57;26.00;89.40
63317;DHT22;49822;41.468;13.560;2023-07-24T00:56:26;26.00;89.30
63317;DHT22;49822;41.468;13.560;2023-07-24T00:58:54;25.90;88.30
63317;DHT22;49822;41.468;13.560;2023-07-24T01:01:28;26.00;88.40
63317;DHT22;49822;41.468;13.560;2023-07-24T01:03:57;25.90;88.30
63317;DHT22;49822;41.468;13.560;2023-07-24T01:06:24;25.90;87.90
63317;DHT22;49822;41.468;13.560;2023-07-24T01:08:51;25.90;88.00
63317;DHT22;49822;41.468;13.560;2023-07-24T01:11:28;25.90;88.00
63317;DHT22;49822;41.468;13.560;2023-07-24T01:16:47;26.00;88.20
63317;DHT22;49822;41.468;13.560;2023-07-24T01:19:37;25.90;88.00
63317;DHT22;49822;41.468;13.560;2023-07-24T01:27:26;25.70;88.80
63317;DHT22;49822;41.468;13.560;2023-07-24T01:29:52;25.70;89.20
63317;DHT22;49822;41.468;13.560;2023-07-24T01:32:21;25.80;88.80
63317;DHT22;49822;41.468;13.560;2023-07-24T01:34:47;25.80;89.10
63317;DHT22;49822;41.468;13.560;2023-07-24T01:37:14;25.70;89.30
63317;DHT22;49822;41.468;13.560;2023-07-24T01:39:41;25.50;90.10
63317;DHT22;49822;41.468;13.560;2023-07-24T01:42:08;25.40;91.20
63317;DHT22;49822;41.468;13.560;2023-07-24T01:44:35;25.40;91.20
63317;DHT22;49822;41.468;13.560;2023-07-24T01:47:01;25.50;90.90
63317;DHT22;49822;41.468;13.560;2023-07-24T01:49:28;25.60;90.40
63317;DHT22;49822;41.468;13.560;2023-07-24T01:51:55;25.60;89.50
63317;DHT22;49822;41.468;13.560;2023-07-24T01:54:22;25.50;89.00
63317;DHT22;49822;41.468;13.560;2023-07-24T01:56:48;25.50;89.50
63317;DHT22;49822;41.468;13.560;2023-07-24T01:59:14;25.50;89.80
63317;DHT22;49822;41.468;13.560;2023-07-24T02:01:40;25.40;89.20
63317;DHT22;49822;41.468;13.560;2023-07-24T02:04:07;25.30;89.40
63317;DHT22;49822;41.468;13.560;2023-07-24T02:06:33;25.30;89.80
63317;DHT22;49822;41.468;13.560;2023-07-24T02:08:59;25.30;89.80
63317;DHT22;49822;41.468;13.560;2023-07-24T02:11:25;25.30;89.70
63317;DHT22;49822;41.468;13.560;2023-07-24T02:13:52;25.30;89.10
63317;DHT22;49822;41.468;13.560;2023-07-24T02:16:18;25.30;88.70
63317;DHT22;49822;41.468;13.560;2023-07-24T02:18:44;25.30;88.10
63317;DHT22;49822;41.468;13.560;2023-07-24T02:21:10;25.30;88.20
63317;DHT22;49822;41.468;13.560;2023-07-24T02:23:36;25.30;88.20
63317;DHT22;49822;41.468;13.560;2023-07-24T02:26:04;25.20;88.50
63317;DHT22;49822;41.468;13.560;2023-07-24T02:28:30;25.10;89.40
63317;DHT22;49822;41.468;13.560;2023-07-24T02:30:56;25.00;89.60
63317;DHT22;49822;41.468;13.560;2023-07-24T02:33:25;25.10;90.10
63317;DHT22;49822;41.468;13.560;2023-07-24T02:35:52;25.00;89.80
63317;DHT22;49822;41.468;13.560;2023-07-24T02:38:18;25.10;88.80
63317;DHT22;49822;41.468;13.560;2023-07-24T02:40:45;25.10;88.30
63317;DHT22;49822;41.468;13.560;2023-07-24T02:43:11;25.10;88.00
63317;DHT22;49822;41.468;13.560;2023-07-24T02:45:39;25.10;88.00
63317;DHT22;49822;41.468;13.560;2023-07-24T02:48:06;25.10;88.20
63317;DHT22;49822;41.468;13.560;2023-07-24T02:50:35;25.00;87.40
63317;DHT22;49822;41.468;13.560;2023-07-24T02:53:01;25.10;87.00
63317;DHT22;49822;41.468;13.560;2023-07-24T02:55:27;25.00;87.60
63317;DHT22;49822;41.468;13.560;2023-07-24T02:57:54;25.10;87.70
63317;DHT22;49822;41.468;13.560;2023-07-24T03:00:22;25.10;87.60
63317;DHT22;49822;41.468;13.560;2023-07-24T03:02:54;25.00;87.50
63317;DHT22;49822;41.468;13.560;2023-07-24T03:05:20;25.00;87.30
63317;DHT22;49822;41.468;13.560;2023-07-24T03:07:46;25.00;88.20
63317;DHT22;49822;41.468;13.560;2023-07-24T03:10:12;24.80;88.70
63317;DHT22;49822;41.468;13.560;2023-07-24T03:12:57;24.80;89.90
63317;DHT22;49822;41.468;13.560;2023-07-24T03:15:25;24.70;89.30
63317;DHT22;49822;41.468;13.560;2023-07-24T03:17:54;24.80;88.80
63317;DHT22;49822;41.468;13.560;2023-07-24T03:20:20;24.70;89.30
63317;DHT22;49822;41.468;13.560;2023-07-24T03:22:46;24.80;89.00
63317;DHT22;49822;41.468;13.560;2023-07-24T03:25:13;24.80;88.70
63317;DHT22;49822;41.468;13.560;2023-07-24T03:27:39;24.70;87.80
63317;DHT22;49822;41.468;13.560;2023-07-24T03:30:07;24.70;88.10
63317;DHT22;49822;41.468;13.560;2023-07-24T03:32:36;24.70;88.60
63317;DHT22;49822;41.468;13.560;2023-07-24T03:35:02;24.70;88.30
63317;DHT22;49822;41.468;13.560;2023-07-24T03:37:29;24.70;87.70
63317;DHT22;49822;41.468;13.560;2023-07-24T03:39:55;24.80;87.50
63317;DHT22;49822;41.468;13.560;2023-07-24T03:42:34;24.60;87.50
63317;DHT22;49822;41.468;13.560;2023-07-24T03:45:01;24.50;87.10
63317;DHT22;49822;41.468;13.560;2023-07-24T03:47:27;24.20;88.90
63317;DHT22;49822;41.468;13.560;2023-07-24T03:49:53;23.70;90.90
63317;DHT22;49822;41.468;13.560;2023-07-24T03:52:19;23.50;91.80
63317;DHT22;49822;41.468;13.560;2023-07-24T03:54:45;23.50;92.90
63317;DHT22;49822;41.468;13.560;2023-07-24T03:57:12;23.60;93.20
63317;DHT22;49822;41.468;13.560;2023-07-24T03:59:38;23.70;94.00
63317;DHT22;49822;41.468;13.560;2023-07-24T04:02:04;23.90;93.30
63317;DHT22;49822;41.468;13.560;2023-07-24T04:04:31;24.00;92.30
63317;DHT22;49822;41.468;13.560;2023-07-24T04:06:57;24.00;90.60
63317;DHT22;49822;41.468;13.560;2023-07-24T04:09:24;24.00;91.00
63317;DHT22;49822;41.468;13.560;2023-07-24T04:11:50;24.20;91.60
63317;DHT22;49822;41.468;13.560;2023-07-24T04:14:16;24.30;90.80
63317;DHT22;49822;41.468;13.560;2023-07-24T04:16:42;24.30;90.40
63317;DHT22;49822;41.468;13.560;2023-07-24T04:19:08;24.20;90.40
63317;DHT22;49822;41.468;13.560;2023-07-24T04:21:34;24.30;90.40
63317;DHT22;49822;41.468;13.560;2023-07-24T04:24:00;24.40;90.60
63317;DHT22;49822;41.468;13.560;2023-07-24T04:26:26;24.50;90.60
63317;DHT22;49822;41.468;13.560;2023-07-24T04:28:52;24.50;90.30
63317;DHT22;49822;41.468;13.560;2023-07-24T04:31:18;24.50;90.50
63317;DHT22;49822;41.468;13.560;2023-07-24T04:33:44;24.60;89.60
63317;DHT22;49822;41.468;13.560;2023-07-24T04:36:10;24.60;89.50
63317;DHT22;49822;41.468;13.560;2023-07-24T04:38:36;24.60;89.60
63317;DHT22;49822;41.468;13.560;2023-07-24T04:41:03;24.60;89.60
63317;DHT22;49822;41.468;13.560;2023-07-24T04:43:29;24.70;89.80
63317;DHT22;49822;41.468;13.560;2023-07-24T04:45:56;24.80;90.10
63317;DHT22;49822;41.468;13.560;2023-07-24T04:48:22;24.90;89.80
63317;DHT22;49822;41.468;13.560;2023-07-24T04:50:53;25.00;89.40
63317;DHT22;49822;41.468;13.560;2023-07-24T04:53:20;25.10;89.60
63317;DHT22;49822;41.468;13.560;2023-07-24T04:55:47;25.10;89.30
63317;DHT22;49822;41.468;13.560;2023-07-24T04:58:13;25.20;88.60
63317;DHT22;49822;41.468;13.560;2023-07-24T05:00:40;25.20;90.20
63317;DHT22;49822;41.468;13.560;2023-07-24T05:03:08;25.20;89.20
63317;DHT22;49822;41.468;13.560;2023-07-24T05:05:39;25.20;89.00
63317;DHT22;49822;41.468;13.560;2023-07-24T05:08:06;25.20;89.20
63317;DHT22;49822;41.468;13.560;2023-07-24T05:10:38;25.30;89.70
63317;DHT22;49822;41.468;13.560;2023-07-24T05:13:04;25.30;89.00
63317;DHT22;49822;41.468;13.560;2023-07-24T05:15:31;25.40;89.20
63317;DHT22;49822;41.468;13.560;2023-07-24T05:17:58;25.40;89.50
63317;DHT22;49822;41.468;13.560;2023-07-24T05:20:25;25.50;89.20
63317;DHT22;49822;41.468;13.560;2023-07-24T05:22:51;25.70;89.70
63317;DHT22;49822;41.468;13.560;2023-07-24T05:25:16;25.70;90.10
63317;DHT22;49822;41.468;13.560;2023-07-24T05:27:43;25.80;90.50
63317;DHT22;49822;41.468;13.560;2023-07-24T05:30:10;25.70;90.70
63317;DHT22;49822;41.468;13.560;2023-07-24T05:32:37;25.90;90.40
63317;DHT22;49822;41.468;13.560;2023-07-24T05:35:04;25.90;90.30
63317;DHT22;49822;41.468;13.560;2023-07-24T05:37:32;26.10;89.60
63317;DHT22;49822;41.468;13.560;2023-07-24T05:39:58;26.10;90.40
63317;DHT22;49822;41.468;13.560;2023-07-24T05:42:24;26.10;90.10
63317;DHT22;49822;41.468;13.560;2023-07-24T05:44:50;26.20;89.90
63317;DHT22;49822;41.468;13.560;2023-07-24T05:47:16;26.20;89.60
63317;DHT22;49822;41.468;13.560;2023-07-24T05:49:42;26.40;89.20
63317;DHT22;49822;41.468;13.560;2023-07-24T05:52:08;26.50;88.10
63317;DHT22;49822;41.468;13.560;2023-07-24T05:54:34;26.60;88.00
63317;DHT22;49822;41.468;13.560;2023-07-24T05:57:00;26.60;88.00
63317;DHT22;49822;41.468;13.560;2023-07-24T05:59:26;26.60;88.10
63317;DHT22;49822;41.468;13.560;2023-07-24T06:01:52;26.70;87.50
63317;DHT22;49822;41.468;13.560;2023-07-24T06:04:18;26.80;87.60
63317;DHT22;49822;41.468;13.560;2023-07-24T06:06:44;26.90;87.50
63317;DHT22;49822;41.468;13.560;2023-07-24T06:09:10;26.90;87.30
63317;DHT22;49822;41.468;13.560;2023-07-24T06:11:36;27.10;87.20
63317;DHT22;49822;41.468;13.560;2023-07-24T06:14:02;27.20;87.60
63317;DHT22;49822;41.468;13.560;2023-07-24T06:16:28;27.30;87.30
63317;DHT22;49822;41.468;13.560;2023-07-24T06:18:54;27.30;87.20
63317;DHT22;49822;41.468;13.560;2023-07-24T06:21:20;27.50;87.20
63317;DHT22;49822;41.468;13.560;2023-07-24T06:23:47;27.70;87.00
63317;DHT22;49822;41.468;13.560;2023-07-24T06:26:13;27.70;86.50
63317;DHT22;49822;41.468;13.560;2023-07-24T06:28:39;27.80;86.10
63317;DHT22;49822;41.468;13.560;2023-07-24T06:31:05;27.80;86.30
63317;DHT22;49822;41.468;13.560;2023-07-24T06:33:31;27.90;86.50
63317;DHT22;49822;41.468;13.560;2023-07-24T06:35:57;27.90;85.90
63317;DHT22;49822;41.468;13.560;2023-07-24T06:38:24;28.00;86.20
63317;DHT22;49822;41.468;13.560;2023-07-24T06:40:50;28.20;85.90
63317;DHT22;49822;41.468;13.560;2023-07-24T06:43:16;28.30;85.90
63317;DHT22;49822;41.468;13.560;2023-07-24T06:45:43;28.30;85.90
63317;DHT22;49822;41.468;13.560;2023-07-24T06:48:11;28.40;86.40
63317;DHT22;49822;41.468;13.560;2023-07-24T06:50:37;28.30;86.00
63317;DHT22;49822;41.468;13.560;2023-07-24T06:53:03;28.40;86.00
63317;DHT22;49822;41.468;13.560;2023-07-24T06:55:29;28.50;85.30
63317;DHT22;49822;41.468;13.560;2023-07-24T06:57:55;28.70;85.20
63317;DHT22;49822;41.468;13.560;2023-07-24T07:00:24;28.70;84.90
63317;DHT22;49822;41.468;13.560;2023-07-24T07:02:53;28.70;83.90
63317;DHT22;49822;41.468;13.560;2023-07-24T07:05:19;28.80;84.50
63317;DHT22;49822;41.468;13.560;2023-07-24T07:07:45;28.90;84.60
63317;DHT22;49822;41.468;13.560;2023-07-24T07:10:11;29.00;83.10
63317;DHT22;49822;41.468;13.560;2023-07-24T07:12:38;29.00;83.20
63317;DHT22;49822;41.468;13.560;2023-07-24T07:15:07;29.10;82.30
63317;DHT22;49822;41.468;13.560;2023-07-24T07:17:36;29.30;83.10
63317;DHT22;49822;41.468;13.560;2023-07-24T07:20:02;29.40;82.90
63317;DHT22;49822;41.468;13.560;2023-07-24T07:22:29;29.60;82.00
63317;DHT22;49822;41.468;13.560;2023-07-24T07:24:55;29.70;81.10
63317;DHT22;49822;41.468;13.560;2023-07-24T07:27:21;29.70;80.60
63317;DHT22;49822;41.468;13.560;2023-07-24T07:29:47;29.80;81.20
63317;DHT22;49822;41.468;13.560;2023-07-24T07:32:13;29.90;82.00
63317;DHT22;49822;41.468;13.560;2023-07-24T07:34:39;30.10;81.80
63317;DHT22;49822;41.468;13.560;2023-07-24T07:37:06;30.20;81.50
63317;DHT22;49822;41.468;13.560;2023-07-24T07:39:32;30.30;80.90
63317;DHT22;49822;41.468;13.560;2023-07-24T07:41:58;30.40;80.10
63317;DHT22;49822;41.468;13.560;2023-07-24T07:44:27;30.50;80.00
63317;DHT22;49822;41.468;13.560;2023-07-24T07:46:55;30.60;79.90
63317;DHT22;49822;41.468;13.560;2023-07-24T07:49:21;30.70;80.40
63317;DHT22;49822;41.468;13.560;2023-07-24T07:51:47;30.80;79.50
63317;DHT22;49822;41.468;13.560;2023-07-24T07:54:13;31.00;79.30
63317;DHT22;49822;41.468;13.560;2023-07-24T07:56:39;30.90;79.30
63317;DHT22;49822;41.468;13.560;2023-07-24T07:59:05;31.00;79.20
63317;DHT22;49822;41.468;13.560;2023-07-24T08:01:31;31.10;78.20
63317;DHT22;49822;41.468;13.560;2023-07-24T08:03:58;31.10;77.50
63317;DHT22;49822;41.468;13.560;2023-07-24T08:06:24;31.20;77.60
63317;DHT22;49822;41.468;13.560;2023-07-24T08:08:50;31.10;77.70
63317;DHT22;49822;41.468;13.560;2023-07-24T08:11:16;31.20;77.50
63317;DHT22;49822;41.468;13.560;2023-07-24T08:13:42;31.40;77.00
63317;DHT22;49822;41.468;13.560;2023-07-24T08:16:15;31.50;77.60
63317;DHT22;49822;41.468;13.560;2023-07-24T08:18:48;31.70;77.40
63317;DHT22;49822;41.468;13.560;2023-07-24T08:21:14;31.70;77.40
63317;DHT22;49822;41.468;13.560;2023-07-24T08:23:41;32.00;77.10
63317;DHT22;49822;41.468;13.560;2023-07-24T08:26:07;32.00;75.30
63317;DHT22;49822;41.468;13.560;2023-07-24T08:28:34;32.10;75.80
63317;DHT22;49822;41.468;13.560;2023-07-24T08:31:02;32.20;75.90
63317;DHT22;49822;41.468;13.560;2023-07-24T08:33:29;32.40;74.80
63317;DHT22;49822;41.468;13.560;2023-07-24T08:36:00;32.40;73.80
63317;DHT22;49822;41.468;13.560;2023-07-24T08:38:26;32.50;71.60
63317;DHT22;49822;41.468;13.560;2023-07-24T08:41:07;32.60;70.80
63317;DHT22;49822;41.468;13.560;2023-07-24T08:43:41;32.70;72.60
63317;DHT22;49822;41.468;13.560;2023-07-24T08:46:09;32.80;72.20
63317;DHT22;49822;41.468;13.560;2023-07-24T08:48:40;32.80;70.80
63317;DHT22;49822;41.468;13.560;2023-07-24T08:51:09;32.90;72.50
63317;DHT22;49822;41.468;13.560;2023-07-24T08:53:37;33.00;70.80
63317;DHT22;49822;41.468;13.560;2023-07-24T08:56:05;32.90;69.70
63317;DHT22;49822;41.468;13.560;2023-07-24T08:58:32;32.80;69.60
63317;DHT22;49822;41.468;13.560;2023-07-24T09:00:59;33.00;68.90
63317;DHT22;49822;41.468;13.560;2023-07-24T09:03:26;32.90;69.10
63317;DHT22;49822;41.468;13.560;2023-07-24T09:05:53;33.00;65.00
63317;DHT22;49822;41.468;13.560;2023-07-24T09:08:35;33.10;64.40
63317;DHT22;49822;41.468;13.560;2023-07-24T09:11:02;33.10;65.60
63317;DHT22;49822;41.468;13.560;2023-07-24T09:13:29;33.30;66.60
63317;DHT22;49822;41.468;13.560;2023-07-24T09:15:55;33.40;66.00
63317;DHT22;49822;41.468;13.560;2023-07-24T09:18:22;33.40;66.10
63317;DHT22;49822;41.468;13.560;2023-07-24T09:20:48;33.60;66.90
63317;DHT22;49822;41.468;13.560;2023-07-24T09:23:15;33.80;65.80
63317;DHT22;49822;41.468;13.560;2023-07-24T09:25:42;33.90;65.80
63317;DHT22;49822;41.468;13.560;2023-07-24T09:28:13;34.00;66.30
63317;DHT22;49822;41.468;13.560;2023-07-24T09:30:50;34.10;63.80
63317;DHT22;49822;41.468;13.560;2023-07-24T09:33:17;34.20;60.80
63317;DHT22;49822;41.468;13.560;2023-07-24T09:35:43;34.30;62.90
63317;DHT22;49822;41.468;13.560;2023-07-24T09:38:10;34.40;64.30
63317;DHT22;49822;41.468;13.560;2023-07-24T09:40:40;34.40;62.60
63317;DHT22;49822;41.468;13.560;2023-07-24T09:43:17;34.50;62.50
63317;DHT22;49822;41.468;13.560;2023-07-24T09:45:45;34.60;62.30
63317;DHT22;49822;41.468;13.560;2023-07-24T09:48:14;34.70;62.20
63317;DHT22;49822;41.468;13.560;2023-07-24T09:50:45;34.90;62.10
63317;DHT22;49822;41.468;13.560;2023-07-24T09:56:09;35.00;60.40
63317;DHT22;49822;41.468;13.560;2023-07-24T09:58:38;35.20;60.20
63317;DHT22;49822;41.468;13.560;2023-07-24T10:01:06;35.10;58.40
63317;DHT22;49822;41.468;13.560;2023-07-24T10:03:39;35.20;59.10
63317;DHT22;49822;41.468;13.560;2023-07-24T10:06:05;35.20;57.70
63317;DHT22;49822;41.468;13.560;2023-07-24T10:08:32;35.30;57.40
63317;DHT22;49822;41.468;13.560;2023-07-24T10:10:59;35.30;57.90
63317;DHT22;49822;41.468;13.560;2023-07-24T10:13:26;35.40;58.70
63317;DHT22;49822;41.468;13.560;2023-07-24T10:15:53;35.50;59.10
63317;DHT22;49822;41.468;13.560;2023-07-24T10:18:27;35.70;58.70
63317;DHT22;49822;41.468;13.560;2023-07-24T10:21:05;35.70;58.10
63317;DHT22;49822;41.468;13.560;2023-07-24T10:23:34;35.80;54.90
63317;DHT22;49822;41.468;13.560;2023-07-24T10:26:04;35.70;56.80
63317;DHT22;49822;41.468;13.560;2023-07-24T10:28:36;35.80;58.40
63317;DHT22;49822;41.468;13.560;2023-07-24T10:31:20;36.00;56.20
63317;DHT22;49822;41.468;13.560;2023-07-24T10:33:46;36.00;57.20
63317;DHT22;49822;41.468;13.560;2023-07-24T10:36:18;36.20;57.20
63317;DHT22;49822;41.468;13.560;2023-07-24T10:38:46;36.20;55.90
63317;DHT22;49822;41.468;13.560;2023-07-24T10:41:13;36.40;56.90
63317;DHT22;49822;41.468;13.560;2023-07-24T10:43:45;36.60;54.90
63317;DHT22;49822;41.468;13.560;2023-07-24T10:46:13;36.60;55.60
63317;DHT22;49822;41.468;13.560;2023-07-24T10:48:46;36.80;56.90
63317;DHT22;49822;41.468;13.560;2023-07-24T10:51:13;37.00;56.30
63317;DHT22;49822;41.468;13.560;2023-07-24T10:53:48;37.10;54.30
63317;DHT22;49822;41.468;13.560;2023-07-24T10:56:15;37.00;55.00
63317;DHT22;49822;41.468;13.560;2023-07-24T10:58:41;37.10;53.60
63317;DHT22;49822;41.468;13.560;2023-07-24T11:01:09;37.10;56.20
63317;DHT22;49822;41.468;13.560;2023-07-24T11:03:40;37.50;56.50
63317;DHT22;49822;41.468;13.560;2023-07-24T11:06:13;37.90;55.00
63317;DHT22;49822;41.468;13.560;2023-07-24T11:08:40;38.00;53.40
63317;DHT22;49822;41.468;13.560;2023-07-24T11:11:07;38.20;53.40
63317;DHT22;49822;41.468;13.560;2023-07-24T11:13:33;38.20;52.10
63317;DHT22;49822;41.468;13.560;2023-07-24T11:16:09;38.30;51.80
63317;DHT22;49822;41.468;13.560;2023-07-24T11:18:45;38.20;53.00
63317;DHT22;49822;41.468;13.560;2023-07-24T11:21:12;37.80;50.90
63317;DHT22;49822;41.468;13.560;2023-07-24T11:23:46;38.00;53.50
63317;DHT22;49822;41.468;13.560;2023-07-24T11:26:12;38.00;51.00
63317;DHT22;49822;41.468;13.560;2023-07-24T11:28:42;38.10;50.40
63317;DHT22;49822;41.468;13.560;2023-07-24T11:31:08;38.10;49.80
63317;DHT22;49822;41.468;13.560;2023-07-24T11:33:34;38.30;50.90
63317;DHT22;49822;41.468;13.560;2023-07-24T11:36:01;38.30;49.40
63317;DHT22;49822;41.468;13.560;2023-07-24T11:38:27;38.60;50.40
63317;DHT22;49822;41.468;13.560;2023-07-24T11:40:54;38.60;47.30
63317;DHT22;49822;41.468;13.560;2023-07-24T11:43:23;38.50;48.70
63317;DHT22;49822;41.468;13.560;2023-07-24T11:45:51;38.60;49.00
63317;DHT22;49822;41.468;13.560;2023-07-24T11:48:19;38.80;48.80
63317;DHT22;49822;41.468;13.560;2023-07-24T11:50:50;39.00;49.30
63317;DHT22;49822;41.468;13.560;2023-07-24T11:53:25;39.20;49.00
63317;DHT22;49822;41.468;13.560;2023-07-24T11:55:52;39.30;48.80
63317;DHT22;49822;41.468;13.560;2023-07-24T11:58:20;39.40;49.60
63317;DHT22;49822;41.468;13.560;2023-07-24T12:00:47;39.60;49.20
63317;DHT22;49822;41.468;13.560;2023-07-24T12:03:20;39.70;49.30
63317;DHT22;49822;41.468;13.560;2023-07-24T12:05:46;39.70;48.30
63317;DHT22;49822;41.468;13.560;2023-07-24T12:08:12;39.70;47.60
63317;DHT22;49822;41.468;13.560;2023-07-24T12:10:40;39.40;46.70
63317;DHT22;49822;41.468;13.560;2023-07-24T12:13:07;39.20;47.70
63317;DHT22;49822;41.468;13.560;2023-07-24T12:15:34;39.30;49.20
63317;DHT22;49822;41.468;13.560;2023-07-24T12:18:03;39.50;46.60
63317;DHT22;49822;41.468;13.560;2023-07-24T12:20:29;39.60;49.30
63317;DHT22;49822;41.468;13.560;2023-07-24T12:22:56;39.80;48.90
63317;DHT22;49822;41.468;13.560;2023-07-24T12:25:23;39.80;47.00
63317;DHT22;49822;41.468;13.560;2023-07-24T12:27:49;39.80;46.60
63317;DHT22;49822;41.468;13.560;2023-07-24T12:30:15;39.60;47.70
63317;DHT22;49822;41.468;13.560;2023-07-24T12:32:41;39.80;48.20
63317;DHT22;49822;41.468;13.560;2023-07-24T12:35:08;39.70;47.80
63317;DHT22;49822;41.468;13.560;2023-07-24T12:37:35;38.90;49.80
63317;DHT22;49822;41.468;13.560;2023-07-24T12:40:02;38.40;51.10
63317;DHT22;49822;41.468;13.560;2023-07-24T12:42:29;38.10;51.60
63317;DHT22;49822;41.468;13.560;2023-07-24T12:44:55;37.60;51.10
63317;DHT22;49822;41.468;13.560;2023-07-24T12:47:21;37.10;51.50
63317;DHT22;49822;41.468;13.560;2023-07-24T12:49:47;37.00;51.80
63317;DHT22;49822;41.468;13.560;2023-07-24T12:52:13;37.20;51.50
63317;DHT22;49822;41.468;13.560;2023-07-24T12:54:39;37.30;51.20
63317;DHT22;49822;41.468;13.560;2023-07-24T12:57:05;37.20;52.00
63317;DHT22;49822;41.468;13.560;2023-07-24T12:59:31;37.70;51.40
63317;DHT22;49822;41.468;13.560;2023-07-24T13:01:57;37.70;51.00
63317;DHT22;49822;41.468;13.560;2023-07-24T13:04:24;37.80;50.00
63317;DHT22;49822;41.468;13.560;2023-07-24T13:06:50;37.30;51.00
63317;DHT22;49822;41.468;13.560;2023-07-24T13:09:17;37.20;50.10
63317;DHT22;49822;41.468;13.560;2023-07-24T13:11:43;37.10;49.30
63317;DHT22;49822;41.468;13.560;2023-07-24T13:14:09;37.20;50.30
63317;DHT22;49822;41.468;13.560;2023-07-24T13:16:35;37.00;50.60
63317;DHT22;49822;41.468;13.560;2023-07-24T13:19:01;37.00;50.30
63317;DHT22;49822;41.468;13.560;2023-07-24T13:21:28;37.00;49.50
63317;DHT22;49822;41.468;13.560;2023-07-24T13:23:54;36.70;49.80
63317;DHT22;49822;41.468;13.560;2023-07-24T13:26:21;37.00;51.30
63317;DHT22;49822;41.468;13.560;2023-07-24T13:28:47;36.60;50.10
63317;DHT22;49822;41.468;13.560;2023-07-24T13:31:15;36.40;50.60
63317;DHT22;49822;41.468;13.560;2023-07-24T13:33:42;36.40;51.10
63317;DHT22;49822;41.468;13.560;2023-07-24T13:36:08;36.40;50.70
63317;DHT22;49822;41.468;13.560;2023-07-24T13:38:35;36.30;51.30
63317;DHT22;49822;41.468;13.560;2023-07-24T13:41:01;36.50;51.00
63317;DHT22;49822;41.468;13.560;2023-07-24T13:43:29;36.60;49.90
63317;DHT22;49822;41.468;13.560;2023-07-24T13:45:55;36.60;50.10
63317;DHT22;49822;41.468;13.560;2023-07-24T13:48:21;36.80;50.90
63317;DHT22;49822;41.468;13.560;2023-07-24T13:50:48;36.90;49.70
63317;DHT22;49822;41.468;13.560;2023-07-24T13:53:15;36.70;50.90
63317;DHT22;49822;41.468;13.560;2023-07-24T13:55:40;36.80;50.70
63317;DHT22;49822;41.468;13.560;2023-07-24T13:58:07;36.80;50.90
63317;DHT22;49822;41.468;13.560;2023-07-24T14:00:34;36.80;50.10
63317;DHT22;49822;41.468;13.560;2023-07-24T14:03:02;36.80;50.10
63317;DHT22;49822;41.468;13.560;2023-07-24T14:05:28;36.70;50.00
63317;DHT22;49822;41.468;13.560;2023-07-24T14:07:55;36.80;50.60
63317;DHT22;49822;41.468;13.560;2023-07-24T14:10:21;36.70;50.40
63317;DHT22;49822;41.468;13.560;2023-07-24T14:12:47;36.50;50.30
63317;DHT22;49822;41.468;13.560;2023-07-24T14:15:13;36.40;50.10
63317;DHT22;49822;41.468;13.560;2023-07-24T14:17:40;36.50;50.50
63317;DHT22;49822;41.468;13.560;2023-07-24T14:20:09;36.70;51.00
63317;DHT22;49822;41.468;13.560;2023-07-24T14:22:37;36.90;50.20
63317;DHT22;49822;41.468;13.560;2023-07-24T14:25:05;36.70;50.00
63317;DHT22;49822;41.468;13.560;2023-07-24T14:27:34;36.80;50.30
63317;DHT22;49822;41.468;13.560;2023-07-24T14:30:00;36.70;49.80
63317;DHT22;49822;41.468;13.560;2023-07-24T14:32:26;36.60;50.90
63317;DHT22;49822;41.468;13.560;2023-07-24T14:34:52;36.70;50.90
63317;DHT22;49822;41.468;13.560;2023-07-24T14:37:19;36.40;50.20
63317;DHT22;49822;41.468;13.560;2023-07-24T14:39:46;36.50;50.20
63317;DHT22;49822;41.468;13.560;2023-07-24T14:42:12;36.40;50.60
63317;DHT22;49822;41.468;13.560;2023-07-24T14:44:39;36.30;50.30
63317;DHT22;49822;41.468;13.560;2023-07-24T14:47:05;36.20;50.80
63317;DHT22;49822;41.468;13.560;2023-07-24T14:49:32;36.30;51.20
63317;DHT22;49822;41.468;13.560;2023-07-24T14:51:58;36.30;50.30
63317;DHT22;49822;41.468;13.560;2023-07-24T14:54:24;36.20;50.50
63317;DHT22;49822;41.468;13.560;2023-07-24T14:56:51;36.20;50.80
63317;DHT22;49822;41.468;13.560;2023-07-24T14:59:17;36.20;50.80
63317;DHT22;49822;41.468;13.560;2023-07-24T15:01:43;36.00;50.30
63317;DHT22;49822;41.468;13.560;2023-07-24T15:04:09;36.00;50.20
63317;DHT22;49822;41.468;13.560;2023-07-24T15:06:35;36.00;50.80
63317;DHT22;49822;41.468;13.560;2023-07-24T15:09:04;36.00;50.80
63317;DHT22;49822;41.468;13.560;2023-07-24T15:11:31;36.00;50.50
63317;DHT22;49822;41.468;13.560;2023-07-24T15:13:57;36.00;50.90
63317;DHT22;49822;41.468;13.560;2023-07-24T15:16:23;36.00;50.50
63317;DHT22;49822;41.468;13.560;2023-07-24T15:18:49;36.00;50.70
63317;DHT22;49822;41.468;13.560;2023-07-24T15:21:15;36.10;51.90
63317;DHT22;49822;41.468;13.560;2023-07-24T15:23:41;35.70;51.70
63317;DHT22;49822;41.468;13.560;2023-07-24T15:26:08;35.70;51.20